This is the latest recevied weather packets stored in our database for station/object KD6VEX-1. If no packets are shown the sender has not sent any weather packets the latest 10 day(s).
| Time | Temp. | Humidity | Pressure | Rain* | Wind** | Luminosity | Snow |
|---|---|---|---|---|---|---|---|
| 1777340547 | 16.67° C | 54% | 1015.8 hPa | 0 mm | - | - | - |
| 1777340247 | 17.22° C | 53% | 1015.7 hPa | 0 mm | - | - | - |
| 1777339947 | 17.78° C | 52% | 1015.7 hPa | 0 mm | - | - | - |
| 1777339647 | 17.78° C | 51% | 1015.7 hPa | 0 mm | - | - | - |
| 1777339347 | 17.78° C | 51% | 1015.7 hPa | 0 mm | - | - | - |
| 1777339047 | 18.33° C | 50% | 1015.6 hPa | 0 mm | - | - | - |
| 1777338702 | 18.33° C | 50% | 1015.6 hPa | 0 mm | - | - | - |
| 1777336602 | 20° C | 42% | 1015.4 hPa | 0 mm | - | - | - |
| 1777336302 | 20.56° C | 42% | 1015.3 hPa | 0 mm | - | - | - |
| 1777335344 | 20.56° C | 39% | 1015.3 hPa | 0 mm | - | - | - |
| 1777334444 | 20.56° C | 39% | 1015.2 hPa | 0 mm | - | - | - |
| 1777334144 | 20.56° C | 39% | 1015.1 hPa | 0 mm | - | - | - |
| 1777332116 | 20.56° C | 39% | 1014.9 hPa | 0 mm | - | - | - |
| 1777313515 | 18.33° C | 43% | 1016.5 hPa | 0 mm | - | - | - |
| 1777313215 | 18.33° C | 43% | 1016.5 hPa | 0 mm | - | - | - |
| 1777312915 | 17.78° C | 43% | 1016.5 hPa | 0 mm | - | - | - |
| 1777311415 | 17.78° C | 44% | 1016.4 hPa | 0 mm | - | - | - |
| 1777311115 | 17.78° C | 44% | 1016.3 hPa | 0 mm | - | - | - |
| 1777310815 | 17.78° C | 43% | 1016.3 hPa | 0 mm | - | - | - |
| 1777310515 | 17.78° C | 46% | 1016.3 hPa | 0 mm | - | - | - |
| 1777310215 | 17.22° C | 46% | 1016.2 hPa | 0 mm | - | - | - |
| 1777308715 | 16.11° C | 61% | 1016.4 hPa | 0 mm | - | - | - |
| 1777307815 | 15° C | 64% | 1016.4 hPa | 0 mm | - | - | - |
| 1777307515 | 15° C | 66% | 1016.4 hPa | 0 mm | - | - | - |
| 1777307216 | 14.44° C | 68% | 1016.3 hPa | 0 mm | - | - | - |
* Rain latest hour (hover to see other rain measurements)
** Current wind speed in m/s (hover to see current wind gust speed)